Time;durP1;ratioP1;P1;durP2;ratioP2;P2;SDS_P1;SDS_P2;PMS_P1;PMS_P2;Temp;Humidity;BMP_temperature;BMP_pressure;BME280_temperature;BME280_humidity;BME280_pressure;Samples;Min_cycle;Max_cycle;Signal;HPM_P1;HPM_P2
2022/02/07 00:00:44;;;;;;;18.45;9.80;;;;;;;5.11;64.73;99799.41;5073273;28;20073;-76
2022/02/07 00:05:43;;;;;;;20.53;11.07;;;;;;;5.08;64.79;99802.28;5069075;28;20036;-76
2022/02/07 00:08:10;;;;;;;18.73;9.38;;;;;;;4.97;64.59;99796.22;5067342;28;20060;-76
2022/02/07 00:10:38;;;;;;;18.50;10.48;;;;;;;4.89;65.21;99777.66;5066939;28;20041;-76
2022/02/07 00:13:05;;;;;;;20.43;10.40;;;;;;;4.96;66.00;99787.53;5067601;28;20329;-76
2022/02/07 00:15:30;;;;;;;21.15;11.07;;;;;;;4.88;66.33;99768.94;5071186;28;20096;-76
2022/02/07 00:17:56;;;;;;;20.57;10.20;;;;;;;4.81;67.12;99768.63;5068239;28;20044;-76
2022/02/07 00:20:23;;;;;;;17.13;9.63;;;;;;;4.75;65.62;99776.16;5068312;28;20033;-76
2022/02/07 00:22:50;;;;;;;28.97;10.20;;;;;;;3.95;68.05;99760.66;5067101;28;20029;-78
2022/02/07 00:25:17;;;;;;;24.43;11.30;;;;;;;3.62;70.89;99777.19;5068960;28;20361;-78
2022/02/07 00:27:42;;;;;;;18.37;10.37;;;;;;;3.62;71.96;99758.03;5068695;28;20036;-77
2022/02/07 00:30:10;;;;;;;25.77;12.87;;;;;;;3.91;72.08;99759.22;5066451;28;20036;-76
2022/02/07 00:32:36;;;;;;;26.30;12.10;;;;;;;4.15;72.45;99756.47;5067560;28;20326;-76
2022/02/07 00:35:03;;;;;;;24.90;13.67;;;;;;;4.27;72.56;99745.06;5067766;28;20028;-76
2022/02/07 00:37:31;;;;;;;23.23;11.50;;;;;;;4.47;69.78;99738.22;5073345;28;20375;-76
2022/02/07 00:40:05;;;;;;;27.17;12.57;;;;;;;4.68;68.91;99746.97;5068111;28;20016;-76
2022/02/07 00:42:35;;;;;;;25.43;12.17;;;;;;;4.74;68.59;99733.34;5065604;28;20037;-76
2022/02/07 00:45:06;;;;;;;34.33;15.32;;;;;;;4.66;69.08;99732.31;5069175;28;20024;-76
2022/02/07 00:47:31;;;;;;;192.90;39.47;;;;;;;4.70;69.62;99724.06;5067963;28;20079;-77
2022/02/07 00:49:57;;;;;;;41.77;17.50;;;;;;;4.74;68.79;99716.78;5067498;28;20025;-77
2022/02/07 00:52:23;;;;;;;115.67;27.80;;;;;;;4.82;68.15;99717.81;5068079;28;20049;-77
2022/02/07 00:54:50;;;;;;;42.80;17.57;;;;;;;4.94;67.09;99717.75;5066550;28;20021;-76
2022/02/07 00:57:15;;;;;;;43.47;16.40;;;;;;;4.85;67.07;99710.66;5067980;28;20037;-76
2022/02/07 00:59:41;;;;;;;29.00;13.03;;;;;;;4.58;67.44;99714.59;5064953;28;20020;-76
2022/02/07 01:02:06;;;;;;;52.20;20.60;;;;;;;4.38;68.72;99702.25;5069527;28;20036;-76
2022/02/07 01:04:32;;;;;;;91.80;31.83;;;;;;;4.31;68.76;99686.19;5070530;28;20349;-76
2022/02/07 01:06:57;;;;;;;63.60;23.93;;;;;;;4.07;69.90;99683.72;5072216;28;20048;-76
2022/02/07 01:09:28;;;;;;;58.63;20.33;;;;;;;4.28;69.58;99677.75;5069291;28;20036;-76
2022/02/07 01:12:10;;;;;;;65.17;24.73;;;;;;;4.47;67.79;99675.28;5063918;28;20232;-76
2022/02/07 01:14:57;;;;;;;149.40;45.47;;;;;;;3.88;70.33;99670.41;5070733;28;20030;-76
2022/02/07 01:20:45;;;;;;;50.90;20.77;;;;;;;3.92;69.43;99644.81;5069076;28;20059;-76
2022/02/07 01:57:44;;;;;;;36.63;17.53;;;;;;;3.85;68.59;99598.16;5069316;28;20017;-76
2022/02/07 02:00:11;;;;;;;44.80;21.20;;;;;;;3.81;68.74;99585.41;5069341;28;20037;-76
2022/02/07 02:02:37;;;;;;;56.20;25.70;;;;;;;3.59;70.31;99595.94;5067868;28;20041;-76
2022/02/07 02:05:03;;;;;;;33.90;17.03;;;;;;;3.75;69.22;99585.91;5072924;28;20040;-76
2022/02/07 02:07:29;;;;;;;31.17;14.60;;;;;;;3.96;68.55;99599.06;5068793;28;20238;-76
2022/02/07 02:09:54;;;;;;;27.83;14.93;;;;;;;3.88;68.37;99586.59;5072007;28;20024;-76
2022/02/07 02:12:23;;;;;;;27.27;14.10;;;;;;;4.09;67.17;99586.63;5073263;28;20048;-76
2022/02/07 02:17:44;;;;;;;37.10;14.43;;;;;;;4.15;66.88;99570.41;5073071;28;20036;-76
2022/02/07 02:46:54;;;;;;;;;;;;;;;4.22;66.08;99558.50;5070350;28;20051;-76
2022/02/07 02:49:21;;;;;;;30.90;14.93;;;;;;;4.02;66.50;99570.59;5068790;28;19912;-76
2022/02/07 02:51:47;;;;;;;44.90;17.67;;;;;;;3.95;66.52;99550.25;5066710;28;20045;-76
2022/02/07 02:54:12;;;;;;;32.87;16.60;;;;;;;3.88;66.83;99557.78;5069864;28;20048;-76
2022/02/07 02:56:38;;;;;;;62.67;22.67;;;;;;;3.78;67.73;99549.84;5070227;28;20093;-76
2022/02/07 02:59:04;;;;;;;47.57;21.63;;;;;;;3.89;67.09;99533.25;5073067;28;20986;-76
2022/02/07 03:01:30;;;;;;;49.33;19.77;;;;;;;4.01;65.34;99542.72;5067699;28;20067;-76
2022/02/07 03:03:56;;;;;;;43.60;19.83;;;;;;;3.78;67.19;99551.63;5071055;28;20040;-76
2022/02/07 03:06:22;;;;;;;38.30;16.80;;;;;;;3.77;67.86;99534.25;5066992;28;20040;-76
2022/02/07 03:08:48;;;;;;;38.67;17.77;;;;;;;3.67;67.78;99528.09;5068396;28;20192;-77
2022/02/07 03:11:19;;;;;;;47.00;19.30;;;;;;;3.90;66.68;99523.59;5071189;28;20025;-77
2022/02/07 03:13:49;;;;;;;52.00;19.73;;;;;;;3.97;67.04;99535.25;5069902;28;20051;-76
2022/02/07 03:16:37;;;;;;;43.03;21.50;;;;;;;3.89;67.30;99532.41;5066434;28;20067;-76
2022/02/07 03:19:05;;;;;;;41.33;19.60;;;;;;;3.72;67.92;99533.78;5072610;28;20028;-76
2022/02/07 03:21:30;;;;;;;42.43;19.93;;;;;;;3.57;68.56;99541.09;5075011;28;20055;-77
2022/02/07 03:23:56;;;;;;;45.47;16.97;;;;;;;3.77;67.01;99529.84;5072009;28;20028;-76
2022/02/07 03:26:21;;;;;;;37.10;16.30;;;;;;;3.62;67.56;99527.63;5071560;28;20060;-76
2022/02/07 03:28:48;;;;;;;29.87;14.00;;;;;;;3.65;67.33;99515.13;5067308;28;20090;-76
2022/02/07 03:31:19;;;;;;;34.17;13.43;;;;;;;3.44;67.92;99486.25;5065349;28;20094;-76
2022/02/07 03:33:45;;;;;;;34.00;14.70;;;;;;;3.62;67.58;99483.13;5070792;28;20036;-76
2022/02/07 03:36:12;;;;;;;32.27;13.30;;;;;;;3.82;66.60;99509.34;5067558;28;21495;-76
2022/02/07 03:38:38;;;;;;;50.17;19.97;;;;;;;3.62;67.90;99509.28;5071440;28;20041;-77
2022/02/07 03:41:04;;;;;;;63.20;21.73;;;;;;;3.45;68.29;99515.88;5071299;28;20044;-77
2022/02/07 03:43:29;;;;;;;33.13;14.77;;;;;;;2.89;69.55;99490.59;5069139;28;20032;-76
2022/02/07 03:45:55;;;;;;;35.23;14.63;;;;;;;3.32;68.71;99491.66;5071007;28;20059;-76
2022/02/07 03:48:22;;;;;;;27.67;13.27;;;;;;;3.46;68.76;99494.81;5069503;28;20138;-76
2022/02/07 03:50:47;;;;;;;31.67;12.63;;;;;;;3.57;67.66;99480.88;5069000;28;20040;-76
2022/02/07 03:53:13;;;;;;;28.23;11.80;;;;;;;3.68;67.30;99493.91;5069366;28;20049;-76
2022/02/07 03:55:39;;;;;;;25.10;11.20;;;;;;;3.77;66.81;99479.25;5066747;28;20029;-76
2022/02/07 03:58:05;;;;;;;29.57;11.03;;;;;;;3.71;66.61;99464.03;5070504;28;20032;-76
2022/02/07 04:00:32;;;;;;;26.20;13.50;;;;;;;3.80;66.17;99450.19;5070048;28;20047;-76
2022/02/07 04:03:02;;;;;;;27.40;13.07;;;;;;;3.89;66.19;99454.66;5071515;28;20043;-76
2022/02/07 04:07:59;;;;;;;30.23;13.33;;;;;;;3.71;66.23;99443.09;5072213;28;20024;-76
2022/02/07 04:10:26;;;;;;;32.43;13.87;;;;;;;3.94;65.37;99452.50;5069771;28;20025;-76
2022/02/07 04:12:58;;;;;;;30.63;13.47;;;;;;;3.81;66.03;99446.59;5071624;28;20056;-76
2022/02/07 04:15:23;;;;;;;32.93;13.13;;;;;;;3.94;65.25;99460.34;5065372;28;20425;-76
2022/02/07 04:17:55;;;;;;;34.43;14.37;;;;;;;3.95;65.24;99455.94;5073282;28;20043;-77
2022/02/07 04:20:21;;;;;;;30.73;15.03;;;;;;;4.03;64.73;99461.38;5069591;28;20044;-76
2022/02/07 04:22:47;;;;;;;31.63;13.83;;;;;;;4.04;64.29;99460.41;5067854;28;20710;-76
2022/02/07 04:25:12;;;;;;;29.33;12.77;;;;;;;3.89;64.98;99456.47;5069394;28;20107;-76
2022/02/07 04:27:38;;;;;;;25.67;12.03;;;;;;;3.69;65.20;99460.72;5066590;28;20041;-76
2022/02/07 04:30:05;;;;;;;23.77;11.87;;;;;;;3.75;65.66;99474.13;5072059;28;20057;-76
2022/02/07 04:32:30;;;;;;;26.90;12.87;;;;;;;3.86;64.65;99470.63;5065415;28;20032;-76
2022/02/07 04:34:56;;;;;;;30.10;12.67;;;;;;;3.77;63.03;99472.22;5068754;28;20048;-77
2022/02/07 04:37:21;;;;;;;29.23;14.37;;;;;;;3.27;65.02;99478.09;5068960;28;20037;-77
2022/02/07 04:39:47;;;;;;;38.07;14.37;;;;;;;3.09;65.74;99483.81;5073052;28;20037;-78
2022/02/07 04:42:13;;;;;;;24.47;12.33;;;;;;;2.84;65.24;99463.97;5066159;28;20052;-78
2022/02/07 04:44:53;;;;;;;25.90;12.30;;;;;;;2.53;66.72;99459.47;5067629;28;20075;-78
2022/02/07 05:03:24;;;;;;;38.00;17.37;;;;;;;2.68;67.40;99473.13;5068197;28;20056;-76
2022/02/07 05:13:49;;;;;;;36.22;15.45;;;;;;;2.85;66.78;99455.19;5065783;28;20045;-78
2022/02/07 05:16:25;;;;;;;36.43;17.07;;;;;;;3.17;65.79;99460.50;5067862;28;20041;-78
2022/02/07 05:18:55;;;;;;;30.10;12.73;;;;;;;3.06;65.95;99464.91;5069450;28;20037;-78
2022/02/07 05:21:22;;;;;;;35.47;14.70;;;;;;;2.98;66.33;99452.44;5067721;28;20068;-78
2022/02/07 05:23:49;;;;;;;29.87;12.63;;;;;;;3.00;66.45;99470.63;5068036;28;20036;-78
2022/02/07 05:26:14;;;;;;;23.80;12.67;;;;;;;2.84;66.37;99481.44;5065801;28;20044;-76
2022/02/07 05:28:40;;;;;;;27.40;12.77;;;;;;;2.81;66.92;99474.66;5075166;28;20058;-76
2022/02/07 05:31:05;;;;;;;34.80;14.57;;;;;;;2.94;67.12;99461.47;5072770;28;20016;-76
2022/02/07 05:33:31;;;;;;;27.27;13.77;;;;;;;2.96;66.36;99451.72;5065491;28;20063;-78
2022/02/07 05:35:57;;;;;;;39.03;16.47;;;;;;;2.89;67.04;99446.13;5066949;28;20025;-78
2022/02/07 05:38:22;;;;;;;45.43;15.53;;;;;;;3.23;65.63;99461.81;5068536;28;20044;-78
2022/02/07 05:40:58;;;;;;;34.37;15.80;;;;;;;3.25;66.77;99474.78;5070305;28;20044;-77
2022/02/07 05:43:24;;;;;;;35.00;14.40;;;;;;;3.17;66.33;99452.66;5070480;28;20041;-78
2022/02/07 05:45:50;;;;;;;42.07;17.83;;;;;;;3.26;66.08;99465.97;5066436;28;20334;-78
2022/02/07 05:48:15;;;;;;;70.37;23.27;;;;;;;3.38;66.11;99478.91;5068785;28;20036;-78
2022/02/07 05:50:41;;;;;;;41.83;17.50;;;;;;;3.55;64.37;99479.31;5070283;28;20033;-78
2022/02/07 05:53:07;;;;;;;50.43;19.03;;;;;;;3.44;64.55;99473.16;5071994;28;20032;-78
2022/02/07 05:55:32;;;;;;;55.73;19.93;;;;;;;3.52;65.33;99477.78;5065749;28;20040;-79
2022/02/07 05:57:57;;;;;;;56.83;21.83;;;;;;;3.53;65.42;99475.03;5068525;28;20044;-78
2022/02/07 06:00:23;;;;;;;133.20;42.20;;;;;;;3.49;66.05;99475.41;5069845;28;20085;-77
2022/02/07 06:02:49;;;;;;;123.23;40.87;;;;;;;3.35;66.26;99466.06;5071096;28;20423;-75
2022/02/07 06:05:14;;;;;;;110.63;35.90;;;;;;;3.29;65.99;99450.03;5068214;28;20020;-77
2022/02/07 06:07:40;;;;;;;89.87;28.53;;;;;;;3.16;66.93;99466.69;5067494;28;20041;-76
2022/02/07 06:10:06;;;;;;;98.40;30.50;;;;;;;3.43;66.49;99468.06;5069259;28;20028;-76
2022/02/07 06:12:37;;;;;;;104.80;34.00;;;;;;;3.67;66.25;99462.63;5070942;28;20327;-76
2022/02/07 06:15:03;;;;;;;63.47;24.07;;;;;;;3.67;65.87;99452.16;5064368;28;20032;-76
2022/02/07 06:17:29;;;;;;;68.20;25.97;;;;;;;3.24;67.45;99426.84;5066996;28;20036;-76
2022/02/07 06:19:55;;;;;;;99.63;41.13;;;;;;;3.39;68.04;99437.84;5069576;28;20029;-76
2022/02/07 06:22:20;;;;;;;99.63;36.57;;;;;;;3.52;67.97;99430.66;5066020;28;20052;-76
2022/02/07 06:24:46;;;;;;;67.73;28.87;;;;;;;3.97;66.73;99419.97;5068673;28;20507;-76
2022/02/07 06:27:13;;;;;;;51.50;22.13;;;;;;;4.14;65.88;99408.91;5066785;28;20558;-76
2022/02/07 06:29:39;;;;;;;67.53;22.83;;;;;;;4.12;65.84;99424.75;5065689;28;20039;-76
2022/02/07 06:32:05;;;;;;;58.43;25.20;;;;;;;4.34;65.90;99449.19;5070361;28;20038;-76
2022/02/07 06:34:30;;;;;;;70.87;31.53;;;;;;;4.57;64.95;99453.31;5069940;28;20223;-76
2022/02/07 06:36:55;;;;;;;69.47;28.27;;;;;;;4.37;65.77;99444.53;5070463;28;20041;-76
2022/02/07 06:39:21;;;;;;;41.00;20.60;;;;;;;4.55;65.15;99450.00;5074215;28;20333;-76
2022/02/07 06:41:47;;;;;;;47.60;22.07;;;;;;;4.12;65.74;99431.78;5068295;28;20033;-76
2022/02/07 06:44:12;;;;;;;85.87;28.40;;;;;;;4.39;65.87;99444.38;5069727;28;20049;-76
2022/02/07 06:46:38;;;;;;;48.40;20.20;;;;;;;4.36;66.11;99427.13;5072242;28;20043;-76
2022/02/07 06:49:04;;;;;;;61.83;22.23;;;;;;;4.07;67.16;99444.44;5071039;28;20045;-76
2022/02/07 06:51:29;;;;;;;53.77;21.37;;;;;;;4.59;66.58;99440.06;5068406;28;20109;-76
2022/02/07 06:53:54;;;;;;;46.97;21.33;;;;;;;4.78;64.91;99427.03;5073915;28;20044;-76
2022/02/07 06:56:20;;;;;;;53.87;22.33;;;;;;;4.79;65.21;99433.94;5069011;28;20053;-76
2022/02/07 06:58:47;;;;;;;47.73;20.70;;;;;;;4.85;65.09;99436.03;5068166;28;20048;-76
2022/02/07 07:01:13;;;;;;;40.73;19.40;;;;;;;4.98;65.11;99417.41;5069000;28;20246;-77
2022/02/07 07:03:43;;;;;;;40.20;18.42;;;;;;;5.26;64.40;99421.09;5072224;28;20051;-76
2022/02/07 07:06:08;;;;;;;43.55;19.88;;;;;;;5.64;62.88;99431.63;5074176;28;20443;-76
2022/02/07 07:08:38;;;;;;;46.97;20.63;;;;;;;5.47;63.69;99437.56;5078328;28;20040;-79
2022/02/07 07:11:04;;;;;;;42.03;19.17;;;;;;;5.36;63.94;99442.94;5072616;28;20350;-78
2022/02/07 07:13:38;;;;;;;34.90;17.42;;;;;;;5.64;63.07;99446.56;5071007;28;20057;-78
2022/02/07 07:16:25;;;;;;;39.93;16.17;;;;;;;5.16;65.02;99455.16;5073429;28;20338;-78
2022/02/07 07:18:50;;;;;;;68.40;19.77;;;;;;;5.62;65.25;99454.56;5067424;28;20334;-79
2022/02/07 07:21:16;;;;;;;39.33;16.35;;;;;;;5.86;63.53;99450.69;5068792;28;20083;-79
2022/02/07 07:23:42;;;;;;;37.70;16.58;;;;;;;5.84;63.71;99442.97;5070960;28;20032;-79
2022/02/07 07:26:08;;;;;;;32.65;14.95;;;;;;;6.06;63.53;99424.28;5074329;28;20277;-78
2022/02/07 07:28:35;;;;;;;28.13;15.73;;;;;;;5.96;64.65;99422.66;5067721;28;20177;-79
2022/02/07 07:31:03;;;;;;;29.67;14.30;;;;;;;5.97;64.90;99409.38;5074475;28;20330;-79
2022/02/07 07:33:30;;;;;;;37.10;17.35;;;;;;;6.12;64.64;99420.28;5076308;28;20051;-79
2022/02/07 07:35:57;;;;;;;25.70;14.93;;;;;;;6.18;64.73;99416.25;5074400;28;20344;-79
2022/02/07 07:38:23;;;;;;;27.83;14.75;;;;;;;6.36;64.72;99411.94;5074946;28;20028;-78
2022/02/07 07:40:49;;;;;;;33.88;14.07;;;;;;;6.19;64.54;99405.59;5075965;28;20379;-78
2022/02/07 07:43:15;;;;;;;25.55;13.48;;;;;;;6.36;65.19;99412.75;5074692;28;20116;-78
2022/02/07 07:45:50;;;;;;;24.88;13.45;;;;;;;7.14;62.25;99413.22;5075199;28;20056;-78
2022/02/07 07:48:21;;;;;;;31.10;14.38;;;;;;;7.23;61.86;99398.34;5075991;28;20290;-79
2022/02/07 07:51:52;;;;;;;22.65;12.20;;;;;;;7.59;59.14;99389.50;5075155;28;20095;-79
2022/02/07 07:53:58;;;;;;;32.58;13.40;;;;;;;7.79;58.73;99394.59;5061707;28;20417;-78
2022/02/07 08:02:13;;;;;;;43.80;17.15;;;;;;;7.88;58.15;99389.22;5076317;28;20071;-79
2022/02/07 08:04:41;;;;;;;49.50;15.55;;;;;;;7.75;59.08;99372.16;5074787;28;20067;-78
2022/02/07 08:12:29;;;;;;;23.92;12.23;;;;;;;9.05;55.57;99344.66;5074447;28;20142;-78
2022/02/07 08:14:56;;;;;;;23.80;11.93;;;;;;;9.04;55.94;99345.66;5072696;28;20032;-78
2022/02/07 08:17:22;;;;;;;27.30;12.52;;;;;;;9.09;55.93;99350.44;5075342;28;20050;-78
2022/02/07 08:19:49;;;;;;;41.47;15.80;;;;;;;9.42;55.47;99341.59;5073630;28;20054;-79
2022/02/07 08:22:14;;;;;;;27.95;13.95;;;;;;;9.76;54.25;99337.97;5073096;28;20040;-78
2022/02/07 08:24:40;;;;;;;21.42;12.30;;;;;;;9.32;55.19;99330.34;5074044;28;20024;-78
2022/02/07 08:27:06;;;;;;;21.48;12.50;;;;;;;9.12;56.02;99342.19;5073191;28;20097;-78
2022/02/07 08:29:32;;;;;;;30.67;13.30;;;;;;;8.95;56.80;99330.78;5074063;28;20055;-79
2022/02/07 08:31:57;;;;;;;25.30;12.20;;;;;;;8.20;59.26;99312.13;5074733;28;20052;-79
2022/02/07 08:34:23;;;;;;;28.33;13.77;;;;;;;7.82;62.12;99299.41;5073222;28;20298;-78
2022/02/07 08:36:48;;;;;;;34.88;13.60;;;;;;;8.56;59.20;99312.84;5074523;28;20039;-78
2022/02/07 08:39:17;;;;;;;28.27;14.98;;;;;;;8.15;60.26;99317.06;5073160;28;20373;-79
2022/02/07 08:41:43;;;;;;;39.17;16.13;;;;;;;8.53;59.69;99313.16;5074612;28;20033;-76
2022/02/07 08:44:08;;;;;;;31.00;15.55;;;;;;;9.45;56.38;99299.00;5074193;28;20800;-76
2022/02/07 08:46:34;;;;;;;34.78;15.88;;;;;;;9.93;54.74;99292.81;5073526;28;20039;-76
2022/02/07 08:49:00;;;;;;;28.65;14.90;;;;;;;10.13;54.71;99297.72;5072278;28;20027;-78
2022/02/07 08:51:25;;;;;;;23.85;13.02;;;;;;;10.29;53.66;99284.47;5073203;28;20457;-79
2022/02/07 08:53:52;;;;;;;27.42;14.23;;;;;;;10.52;54.14;99303.09;5072718;28;20028;-79
2022/02/07 08:56:26;;;;;;;38.13;16.15;;;;;;;10.33;54.09;99288.44;5073146;28;20033;-76
2022/02/07 08:58:52;;;;;;;29.35;15.50;;;;;;;10.74;53.10;99298.84;5073184;28;20039;-76
2022/02/07 09:01:26;;;;;;;24.45;14.52;;;;;;;10.62;53.78;99290.47;5073444;28;20258;-78
2022/02/07 09:11:14;;;;;;;32.50;17.80;;;;;;;10.52;53.63;99255.44;5073205;28;20035;-76
2022/02/07 09:13:42;;;;;;;33.22;16.52;;;;;;;10.98;52.76;99258.97;5073290;28;20040;-76
2022/02/07 09:18:42;;;;;;;42.13;18.35;;;;;;;11.38;51.82;99233.16;5072340;28;20032;-76
2022/02/07 09:21:09;;;;;;;29.90;17.08;;;;;;;10.80;52.88;99224.84;5073582;28;20032;-72
2022/02/07 09:23:36;;;;;;;30.55;16.95;;;;;;;10.42;53.64;99212.50;5073022;28;20348;-77
2022/02/07 09:26:02;;;;;;;32.00;17.60;;;;;;;10.37;54.04;99201.56;5071961;28;20095;-77
2022/02/07 09:28:28;;;;;;;34.75;16.58;;;;;;;10.04;54.51;99199.06;5073100;28;20278;-76
2022/02/07 09:30:54;;;;;;;29.58;16.20;;;;;;;9.77;56.31;99188.91;5074733;28;20043;-79
2022/02/07 09:33:21;;;;;;;30.80;17.48;;;;;;;9.83;57.31;99212.84;5071960;28;20032;-79
2022/02/07 09:35:49;;;;;;;31.45;15.65;;;;;;;9.46;58.50;99216.09;5073091;28;20017;-79
2022/02/07 09:38:15;;;;;;;26.95;15.80;;;;;;;9.63;58.14;99205.47;5074961;28;20028;-79
2022/02/07 09:40:42;;;;;;;27.77;15.05;;;;;;;9.86;57.75;99214.34;5071600;28;20044;-79
2022/02/07 09:43:08;;;;;;;28.98;16.00;;;;;;;10.02;56.70;99208.16;5072901;28;20052;-79
2022/02/07 09:45:37;;;;;;;27.95;15.25;;;;;;;10.21;56.38;99202.47;5074670;28;20066;-76
2022/02/07 09:48:05;;;;;;;31.70;16.25;;;;;;;10.63;55.36;99196.81;5072695;28;20027;-77
2022/02/07 09:50:31;;;;;;;30.25;15.68;;;;;;;10.65;55.09;99189.53;5071436;28;20021;-77
2022/02/07 09:52:57;;;;;;;29.92;15.98;;;;;;;10.42;55.87;99183.38;5073857;28;20039;-77
2022/02/07 09:55:22;;;;;;;27.95;15.82;;;;;;;10.48;55.06;99161.50;5071316;28;20087;-77
2022/02/07 09:57:52;;;;;;;28.58;15.85;;;;;;;10.51;54.48;99158.50;5073225;28;20082;-76
2022/02/07 10:00:20;;;;;;;28.77;15.35;;;;;;;10.03;56.99;99143.69;5070866;28;20045;-78
2022/02/07 10:03:02;;;;;;;31.52;16.02;;;;;;;9.89;57.74;99129.38;5073102;28;20219;-80
2022/02/07 10:05:29;;;;;;;31.70;18.35;;;;;;;9.78;58.27;99120.00;5069942;28;20210;-79
2022/02/07 10:08:08;;;;;;;30.15;16.90;;;;;;;10.03;58.12;99112.75;5074245;28;20024;-78
2022/02/07 10:10:44;;;;;;;31.63;16.42;;;;;;;9.82;58.05;99094.84;5075654;28;20067;-78
2022/02/07 10:13:20;;;;;;;30.23;17.27;;;;;;;9.79;59.26;99100.50;5092321;28;20226;-78
2022/02/07 10:15:55;;;;;;;42.20;18.75;;;;;;;9.82;58.29;99081.63;5076083;28;20326;-78
2022/02/07 10:37:57;;;;;;;25.10;13.88;;;;;;;10.14;56.38;99063.94;5080848;28;20032;-78
2022/02/07 10:40:43;;;;;;;26.60;15.85;;;;;;;10.07;58.41;99062.97;5079818;28;20035;-78
2022/02/07 10:46:21;;;;;;;32.00;16.83;;;;;;;9.98;60.85;99058.75;5080949;28;20032;-79
2022/02/07 10:48:45;;;;;;;35.72;16.77;;;;;;;9.95;61.55;99051.97;5081919;28;20044;-79
2022/02/07 10:51:12;;;;;;;31.60;16.60;;;;;;;9.78;60.41;99048.59;5081909;28;20090;-77
2022/02/07 10:54:05;;;;;;;27.92;16.58;;;;;;;9.74;60.87;99043.84;5082075;28;20138;-78
2022/02/07 10:56:44;;;;;;;36.45;17.05;;;;;;;9.80;60.89;99040.50;5074200;28;20301;-79
2022/02/07 10:59:16;;;;;;;29.25;15.80;;;;;;;9.79;59.70;99041.50;5081609;28;20078;-79
2022/02/07 11:04:33;;;;;;;29.53;17.13;;;;;;;10.07;61.02;99012.72;5080181;28;20045;-79
2022/02/07 11:07:01;;;;;;;32.15;18.67;;;;;;;10.06;60.94;99003.16;5080591;28;20481;-79
2022/02/07 11:12:42;;;;;;;36.28;19.25;;;;;;;10.11;60.70;98998.16;5080393;28;20033;-78
2022/02/07 11:18:29;;;;;;;32.45;19.60;;;;;;;10.18;59.72;98994.63;5075074;28;20064;-78
2022/02/07 11:21:19;;;;;;;31.13;17.65;;;;;;;10.22;59.06;98982.72;5079054;28;20047;-79
2022/02/07 11:24:06;;;;;;;34.63;17.65;;;;;;;10.42;60.04;98984.88;5080323;28;20040;-79
2022/02/07 11:26:49;;;;;;;29.83;17.10;;;;;;;10.27;59.58;98976.88;5079391;28;20086;-79
2022/02/07 11:29:48;;;;;;;31.88;18.38;;;;;;;10.37;60.64;98977.44;5080552;28;20294;-79
2022/02/07 11:32:47;;;;;;;29.13;17.60;;;;;;;10.40;60.17;98957.75;5080856;28;20063;-79
2022/02/07 11:35:24;;;;;;;30.30;17.55;;;;;;;10.73;58.72;98943.19;5078527;28;20103;-77
2022/02/07 11:37:53;;;;;;;32.15;18.40;;;;;;;10.76;58.67;98934.06;5080388;28;20040;-76
2022/02/07 11:40:31;;;;;;;31.92;17.33;;;;;;;10.88;57.51;98920.19;5080574;28;20086;-76
2022/02/07 11:43:33;;;;;;;29.80;17.20;;;;;;;10.98;57.28;98917.25;5080453;28;20044;-76
2022/02/07 11:46:00;;;;;;;28.63;16.15;;;;;;;11.04;56.98;98905.91;5079802;28;20040;-76
2022/02/07 11:48:25;;;;;;;32.53;15.50;;;;;;;11.16;56.04;98915.03;5080241;28;20063;-77
2022/02/07 11:50:54;;;;;;;26.83;15.45;;;;;;;11.17;56.30;98910.56;5080163;28;20036;-77
2022/02/07 11:53:26;;;;;;;31.00;16.95;;;;;;;11.39;56.13;98922.00;5076221;28;20048;-77
2022/02/07 11:56:06;;;;;;;29.60;16.77;;;;;;;11.64;55.22;98899.47;5071318;28;20036;-77
2022/02/07 11:58:45;;;;;;;30.88;16.35;;;;;;;11.80;55.87;98914.31;5072132;28;20028;-77
2022/02/07 12:01:13;;;;;;;30.40;17.08;;;;;;;12.08;54.38;98912.53;5072239;28;20044;-76
2022/02/07 12:03:41;;;;;;;32.47;17.25;;;;;;;12.18;54.25;98912.22;5071660;28;20062;-77
2022/02/07 12:06:10;;;;;;;31.70;18.60;;;;;;;12.09;54.86;98908.88;5074556;28;20058;-77
2022/02/07 12:08:37;;;;;;;34.65;18.13;;;;;;;12.08;53.77;98887.84;5072231;28;20038;-76
2022/02/07 12:11:03;;;;;;;35.75;18.67;;;;;;;12.17;53.11;98897.28;5071488;28;20031;-76
2022/02/07 12:13:31;;;;;;;36.47;19.50;;;;;;;12.23;53.25;98893.88;5071720;28;20028;-77
2022/02/07 12:16:03;;;;;;;33.25;19.38;;;;;;;12.14;53.54;98887.06;5074108;28;20033;-77
2022/02/07 12:18:28;;;;;;;36.65;19.20;;;;;;;12.52;52.44;98882.25;5073301;28;20040;-76
2022/02/07 12:21:14;;;;;;;32.33;18.83;;;;;;;12.66;51.42;98881.31;5071383;28;20370;-76
2022/02/07 12:23:40;;;;;;;34.75;18.10;;;;;;;12.63;51.48;98883.53;5070275;28;20249;-77
2022/02/07 12:26:11;;;;;;;35.00;18.83;;;;;;;12.33;52.30;98873.09;5071866;28;20471;-77
2022/02/07 12:33:38;;;;;;;33.67;18.08;;;;;;;12.34;53.59;98882.72;5070468;28;20020;-77
2022/02/07 12:36:05;;;;;;;31.33;17.20;;;;;;;12.13;53.12;98830.50;5074888;28;20066;-77
2022/02/07 12:38:35;;;;;;;33.50;18.73;;;;;;;12.44;53.35;98880.53;5073803;28;20071;-77
2022/02/07 12:41:03;;;;;;;34.33;20.40;;;;;;;12.32;53.43;98870.66;5071687;28;20020;-76
2022/02/07 12:43:32;;;;;;;34.45;20.98;;;;;;;12.41;53.32;98864.16;5074103;28;20032;-76
2022/02/07 12:45:58;;;;;;;30.20;19.90;;;;;;;12.44;53.63;98859.28;5073575;28;20028;-77
2022/02/07 12:48:29;;;;;;;47.85;27.75;;;;;;;12.22;52.90;98833.84;5072374;28;20345;-77
2022/02/07 12:50:55;;;;;;;36.67;20.85;;;;;;;12.10;53.40;98833.56;5070449;28;20032;-76
2022/02/07 12:53:26;;;;;;;29.15;17.40;;;;;;;12.00;53.27;98822.47;5072273;28;20090;-77
2022/02/07 12:55:56;;;;;;;35.33;18.65;;;;;;;12.00;54.02;98817.16;5071695;28;20032;-77
2022/02/07 12:58:37;;;;;;;32.40;19.15;;;;;;;11.79;54.01;98806.59;5073522;28;20104;-77
2022/02/07 13:01:23;;;;;;;30.50;19.83;;;;;;;11.77;55.86;98814.75;5074136;28;20064;-76
2022/02/07 13:03:58;;;;;;;34.15;19.58;;;;;;;11.55;55.75;98809.63;5070954;28;20032;-76
2022/02/07 13:06:47;;;;;;;28.33;17.77;;;;;;;11.40;56.18;98805.19;5074800;28;20044;-76
2022/02/07 13:09:24;;;;;;;34.30;18.00;;;;;;;11.55;54.99;98815.75;5071198;28;20041;-77
2022/02/07 13:14:55;;;;;;;;;;;;;;;11.74;54.01;98806.31;5073511;28;20107;-77
2022/02/07 13:17:25;;;;;;;33.20;17.85;;;;;;;11.62;54.90;98803.38;5071991;28;20138;-77
2022/02/07 13:19:52;;;;;;;37.75;18.38;;;;;;;11.69;55.26;98780.38;5075357;28;20040;-77
2022/02/07 13:22:19;;;;;;;41.45;19.70;;;;;;;11.92;53.74;98795.25;5071004;28;20045;-77
2022/02/07 13:24:46;;;;;;;43.28;19.77;;;;;;;11.95;53.39;98778.97;5072362;28;20046;-77
2022/02/07 13:27:14;;;;;;;31.88;18.98;;;;;;;12.12;53.24;98781.09;5072743;28;20322;-77
2022/02/07 13:29:53;;;;;;;39.75;18.83;;;;;;;12.01;53.37;98775.53;5070839;28;20219;-77
2022/02/07 13:32:24;;;;;;;36.83;19.05;;;;;;;11.91;53.19;98775.88;5072778;28;20353;-77
2022/02/07 13:35:08;;;;;;;35.58;19.35;;;;;;;11.99;53.42;98789.00;5086383;28;20021;-77
2022/02/07 13:37:36;;;;;;;35.53;19.73;;;;;;;12.06;53.72;98787.19;5072728;28;20051;-77
2022/02/07 13:40:18;;;;;;;36.97;20.98;;;;;;;11.95;53.77;98777.13;5071696;28;20029;-77
2022/02/07 13:42:48;;;;;;;38.90;21.73;;;;;;;11.46;56.16;98759.41;5073821;28;20067;-77
2022/02/07 13:45:18;;;;;;;42.63;23.48;;;;;;;11.03;58.74;98752.47;5078569;28;20104;-77
2022/02/07 13:47:49;;;;;;;51.63;26.10;;;;;;;11.17;58.91;98739.16;5077226;28;20036;-77
2022/02/07 13:50:18;;;;;;;53.08;29.95;;;;;;;10.91;58.01;98701.00;5077129;28;21657;-77
2022/02/07 13:52:46;;;;;;;56.53;28.00;;;;;;;11.15;58.08;98733.22;5075696;28;20049;-77
2022/02/07 13:55:19;;;;;;;50.65;28.15;;;;;;;11.31;57.83;98723.34;5077305;28;20032;-77
2022/02/07 13:58:03;;;;;;;52.60;27.30;;;;;;;11.63;57.50;98737.91;5078020;28;20032;-77
2022/02/07 14:00:32;;;;;;;53.80;27.42;;;;;;;11.76;57.34;98736.16;5077633;28;20048;-76
2022/02/07 14:03:13;;;;;;;53.45;26.05;;;;;;;11.86;57.77;98729.72;5074853;28;20040;-76
2022/02/07 14:05:51;;;;;;;59.63;28.00;;;;;;;11.69;57.64;98692.88;5077097;28;20093;-76
2022/02/07 14:08:31;;;;;;;50.13;26.38;;;;;;;11.99;57.49;98727.97;5073735;28;20021;-77